Terminal Aerodrome Forecast
Issued by NWS

Home | Current Version | Previous Version | Text Only | Print | Product List | Glossary On
Versions: 1 2 3 4 5 6 7 8 9 10 11 12 13 14 15
000
FTUS45 KREV 251700
TAFRNO
TAF
KRNO 251728Z 2518/2618 20030G44KT P6SM SCT100 WS010/22055KT
     FM260000 17017G28KT P6SM SCT100 BKN150 WS010/25050KT
     FM260400 29007KT P6SM SCT060
     FM261300 32005KT P6SM SKC=

USA.gov is the U.S. government's official web portal to all federal, state and local government web resources and services.